Rochester International Airport
KRST : now visible

Airfield :











YOU CAN JOIN US ON...

 
LOGIN :

Register | Disclaimer

   EN    FR    IT 

 









Legend :    VFR   Marginal VFR   IFR   Intensive IFR   Very Intensive IFR
Visi :
Ceiling :
>= 8 km
>= 3000ft
5 to 8 km
1000 to 3000 ft
1500m to 5 km
500 to 1000 ft
800 to 1500m
200 to 500 ft
< 800m
< 200 ft
Symbols :   Thunderstorms  Fog  Heavy snow  Heavy precipitations  Wind > 20 kt






- Airport Elevation : 1317 ft
- IATA code : RST


KRST - Rochester International

CURRENT METAR :
  • 292254Z 10005KT 10SM FEW055 20/08 A3018 RMK AO2 SLP220 T02000083

EXPIRED METARs :
  • 292154Z VRB05KT 10SM BKN055 20/08 A3018 RMK AO2 SLP223 T02000083
  • 292054Z 07007KT 10SM BKN050 19/08 A3019 RMK AO2 SLP226 T01890083 56014
  • 291954Z 07005KT 10SM CLR 20/09 A3020 RMK AO2 SLP229 T02000089
  • 291854Z 04006KT 10SM FEW049 20/08 A3022 RMK AO2 SLP233 T02000083

TAF KRST
Valid from the 29 at 18:00 until the 30 at 18:00 UTC


291724Z 2918/3018 10005KT P6SM FEW050
FM300300 15011KT P6SM FEW050
FM301500 16014G24KT P6SM SKC
KZMP FIR / North America



MET'MAP, your aeronautical weather chart ! - Copyright ORBIFLY December 2007 - Disclaimer

ORBIFLY MET'MAP TEAM :

Programming & Development : Alexandra Zaïnal
Original concept : Baudouin d'Aumeries
Technical & hardware support : Manuel Goepfert
Assistance : Marc-Olivier Méhu




SOURCES & CREDITS :

   NOAA       Earth
Advisory